sensor_id;sensor_type;location;lat;lon;timestamp;pressure;altitude;pressure_sealevel;temperature;humidity
17260;BME280;8746;49.230;9.220;2023-02-04T00:00:05;101213.41;;;6.43;100.00
17260;BME280;8746;49.230;9.220;2023-02-04T00:02:32;101214.31;;;6.39;100.00
17260;BME280;8746;49.230;9.220;2023-02-04T00:04:57;101213.41;;;6.38;100.00
17260;BME280;8746;49.230;9.220;2023-02-04T00:07:23;101223.94;;;6.40;100.00
17260;BME280;8746;49.230;9.220;2023-02-04T00:09:48;101223.94;;;6.40;100.00
17260;BME280;8746;49.230;9.220;2023-02-04T00:12:14;101225.66;;;6.44;100.00
17260;BME280;8746;49.230;9.220;2023-02-04T00:14:39;101228.28;;;6.43;100.00
17260;BME280;8746;49.230;9.220;2023-02-04T00:17:05;101231.78;;;6.38;100.00
17260;BME280;8746;49.230;9.220;2023-02-04T00:19:32;101229.16;;;6.40;100.00
17260;BME280;8746;49.230;9.220;2023-02-04T00:21:58;101225.66;;;6.33;100.00
17260;BME280;8746;49.230;9.220;2023-02-04T00:24:23;101219.56;;;6.33;100.00
17260;BME280;8746;49.230;9.220;2023-02-04T00:26:48;101230.03;;;6.36;100.00
17260;BME280;8746;49.230;9.220;2023-02-04T00:29:14;101237.91;;;6.34;100.00
17260;BME280;8746;49.230;9.220;2023-02-04T00:31:39;101244.00;;;6.35;100.00
17260;BME280;8746;49.230;9.220;2023-02-04T00:34:04;101240.53;;;6.23;100.00
17260;BME280;8746;49.230;9.220;2023-02-04T00:36:30;101240.56;;;6.27;100.00
17260;BME280;8746;49.230;9.220;2023-02-04T00:38:55;101244.03;;;6.25;100.00
17260;BME280;8746;49.230;9.220;2023-02-04T00:41:20;101245.78;;;6.30;100.00
17260;BME280;8746;49.230;9.220;2023-02-04T00:43:46;101239.66;;;6.26;100.00
17260;BME280;8746;49.230;9.220;2023-02-04T00:46:11;101241.44;;;6.24;100.00
17260;BME280;8746;49.230;9.220;2023-02-04T00:48:37;101237.03;;;6.21;100.00
17260;BME280;8746;49.230;9.220;2023-02-04T00:51:02;101247.53;;;6.20;100.00
17260;BME280;8746;49.230;9.220;2023-02-04T00:53:27;101242.28;;;6.24;100.00
17260;BME280;8746;49.230;9.220;2023-02-04T00:55:53;101248.41;;;6.22;100.00
17260;BME280;8746;49.230;9.220;2023-02-04T00:58:18;101238.81;;;6.24;100.00
17260;BME280;8746;49.230;9.220;2023-02-04T01:00:44;101240.53;;;6.23;100.00
17260;BME280;8746;49.230;9.220;2023-02-04T01:03:09;101241.41;;;6.25;100.00
17260;BME280;8746;49.230;9.220;2023-02-04T01:05:34;101252.75;;;6.31;100.00
17260;BME280;8746;49.230;9.220;2023-02-04T01:08:00;101264.97;;;6.29;100.00
17260;BME280;8746;49.230;9.220;2023-02-04T01:10:25;101255.38;;;6.32;100.00
17260;BME280;8746;49.230;9.220;2023-02-04T01:12:51;101254.50;;;6.32;100.00
17260;BME280;8746;49.230;9.220;2023-02-04T01:15:16;101245.78;;;6.30;100.00
17260;BME280;8746;49.230;9.220;2023-02-04T01:17:42;101250.16;;;6.29;100.00
17260;BME280;8746;49.230;9.220;2023-02-04T01:20:08;101258.88;;;6.28;100.00
17260;BME280;8746;49.230;9.220;2023-02-04T01:22:34;101251.91;;;6.30;100.00
17260;BME280;8746;49.230;9.220;2023-02-04T01:24:59;101258.00;;;6.31;100.00
17260;BME280;8746;49.230;9.220;2023-02-04T01:27:25;101259.75;;;6.25;100.00
17260;BME280;8746;49.230;9.220;2023-02-04T01:29:50;101255.38;;;6.31;100.00
17260;BME280;8746;49.230;9.220;2023-02-04T01:32:15;101254.50;;;6.38;100.00
17260;BME280;8746;49.230;9.220;2023-02-04T01:35:06;101268.47;;;6.21;100.00
17260;BME280;8746;49.230;9.220;2023-02-04T01:37:57;101277.22;;;6.31;100.00
17260;BME280;8746;49.230;9.220;2023-02-04T01:40:23;101274.59;;;6.25;100.00
17260;BME280;8746;49.230;9.220;2023-02-04T01:42:49;101274.63;;;6.20;100.00
17260;BME280;8746;49.230;9.220;2023-02-04T01:45:14;101281.59;;;6.24;100.00
17260;BME280;8746;49.230;9.220;2023-02-04T01:47:39;101277.22;;;6.17;100.00
17260;BME280;8746;49.230;9.220;2023-02-04T01:50:06;101288.59;;;6.21;100.00
17260;BME280;8746;49.230;9.220;2023-02-04T01:52:36;101293.81;;;6.27;100.00
17260;BME280;8746;49.230;9.220;2023-02-04T01:55:05;101296.44;;;6.22;100.00
17260;BME280;8746;49.230;9.220;2023-02-04T01:57:35;101299.94;;;6.21;100.00
17260;BME280;8746;49.230;9.220;2023-02-04T02:00:00;101292.06;;;6.26;100.00
17260;BME280;8746;49.230;9.220;2023-02-04T02:02:46;101291.22;;;6.16;100.00
17260;BME280;8746;49.230;9.220;2023-02-04T02:05:17;101299.94;;;6.09;100.00
17260;BME280;8746;49.230;9.220;2023-02-04T02:07:45;101301.69;;;6.15;100.00
17260;BME280;8746;49.230;9.220;2023-02-04T02:10:12;101312.16;;;6.10;100.00
17260;BME280;8746;49.230;9.220;2023-02-04T02:12:38;101318.31;;;6.17;100.00
17260;BME280;8746;49.230;9.220;2023-02-04T02:15:04;101308.66;;;6.08;100.00
17260;BME280;8746;49.230;9.220;2023-02-04T02:17:30;101292.09;;;6.07;100.00
17260;BME280;8746;49.230;9.220;2023-02-04T02:19:55;101298.19;;;6.02;100.00
17260;BME280;8746;49.230;9.220;2023-02-04T02:22:27;101286.88;;;6.04;100.00
17260;BME280;8746;49.230;9.220;2023-02-04T02:24:54;101296.47;;;6.01;100.00
17260;BME280;8746;49.230;9.220;2023-02-04T02:27:19;101295.56;;;6.02;100.00
17260;BME280;8746;49.230;9.220;2023-02-04T02:29:46;101302.56;;;6.03;100.00
17260;BME280;8746;49.230;9.220;2023-02-04T02:32:13;101300.81;;;6.05;100.00
17260;BME280;8746;49.230;9.220;2023-02-04T02:34:39;101311.25;;;5.94;100.00
17260;BME280;8746;49.230;9.220;2023-02-04T02:37:06;101307.78;;;5.87;100.00
17260;BME280;8746;49.230;9.220;2023-02-04T02:39:34;101304.28;;;5.91;100.00
17260;BME280;8746;49.230;9.220;2023-02-04T02:42:00;101311.25;;;5.89;100.00
17260;BME280;8746;49.230;9.220;2023-02-04T02:44:26;101314.75;;;5.85;100.00
17260;BME280;8746;49.230;9.220;2023-02-04T02:46:52;101315.63;;;5.89;100.00
17260;BME280;8746;49.230;9.220;2023-02-04T02:49:19;101311.28;;;5.97;100.00
17260;BME280;8746;49.230;9.220;2023-02-04T02:51:45;101316.47;;;5.89;100.00
17260;BME280;8746;49.230;9.220;2023-02-04T02:54:19;101320.84;;;5.84;100.00
17260;BME280;8746;49.230;9.220;2023-02-04T02:56:46;101314.72;;;5.82;100.00
17260;BME280;8746;49.230;9.220;2023-02-04T02:59:12;101317.38;;;5.85;99.94
17260;BME280;8746;49.230;9.220;2023-02-04T03:01:38;101315.63;;;5.87;100.00
17260;BME280;8746;49.230;9.220;2023-02-04T03:04:04;101318.22;;;5.86;100.00
17260;BME280;8746;49.230;9.220;2023-02-04T03:06:29;101326.09;;;5.81;100.00
17260;BME280;8746;49.230;9.220;2023-02-04T03:08:55;101324.38;;;5.92;99.89
17260;BME280;8746;49.230;9.220;2023-02-04T03:11:21;101335.69;;;5.93;99.13
17260;BME280;8746;49.230;9.220;2023-02-04T03:13:48;101335.69;;;5.85;100.00
17260;BME280;8746;49.230;9.220;2023-02-04T03:16:14;101346.13;;;5.76;100.00
17260;BME280;8746;49.230;9.220;2023-02-04T03:18:39;101352.25;;;5.75;100.00
17260;BME280;8746;49.230;9.220;2023-02-04T03:21:05;101359.22;;;5.67;100.00
17260;BME280;8746;49.230;9.220;2023-02-04T03:23:35;101359.25;;;5.73;100.00
17260;BME280;8746;49.230;9.220;2023-02-04T03:26:02;101361.84;;;5.68;100.00
17260;BME280;8746;49.230;9.220;2023-02-04T03:28:29;101365.34;;;5.70;100.00
17260;BME280;8746;49.230;9.220;2023-02-04T03:30:55;101369.69;;;5.67;100.00
17260;BME280;8746;49.230;9.220;2023-02-04T03:33:26;101366.19;;;5.65;100.00
17260;BME280;8746;49.230;9.220;2023-02-04T03:35:58;101366.19;;;5.58;100.00
17260;BME280;8746;49.230;9.220;2023-02-04T03:38:24;101373.16;;;5.59;100.00
17260;BME280;8746;49.230;9.220;2023-02-04T03:40:49;101374.91;;;5.54;100.00
17260;BME280;8746;49.230;9.220;2023-02-04T03:43:15;101381.88;;;5.52;100.00
17260;BME280;8746;49.230;9.220;2023-02-04T03:45:40;101379.25;;;5.52;100.00
17260;BME280;8746;49.230;9.220;2023-02-04T03:48:06;101383.59;;;5.47;100.00
17260;BME280;8746;49.230;9.220;2023-02-04T03:50:31;101394.97;;;5.57;100.00
17260;BME280;8746;49.230;9.220;2023-02-04T03:52:56;101386.25;;;5.53;100.00
17260;BME280;8746;49.230;9.220;2023-02-04T03:55:22;101392.31;;;5.49;100.00
17260;BME280;8746;49.230;9.220;2023-02-04T03:57:47;101393.19;;;5.50;100.00
17260;BME280;8746;49.230;9.220;2023-02-04T04:00:13;101388.00;;;5.62;99.56
17260;BME280;8746;49.230;9.220;2023-02-04T04:02:39;101388.00;;;5.56;99.08
17260;BME280;8746;49.230;9.220;2023-02-04T04:05:05;101403.69;;;5.59;97.47
17260;BME280;8746;49.230;9.220;2023-02-04T04:07:31;101415.94;;;5.61;99.53
17260;BME280;8746;49.230;9.220;2023-02-04T04:09:56;101414.16;;;5.56;98.31
17260;BME280;8746;49.230;9.220;2023-02-04T04:12:21;101417.69;;;5.66;99.33
17260;BME280;8746;49.230;9.220;2023-02-04T04:14:47;101417.69;;;5.59;99.02
17260;BME280;8746;49.230;9.220;2023-02-04T04:17:13;101421.22;;;5.68;96.01
17260;BME280;8746;49.230;9.220;2023-02-04T04:19:38;101423.81;;;5.61;96.68
17260;BME280;8746;49.230;9.220;2023-02-04T04:22:03;101430.75;;;5.59;97.75
17260;BME280;8746;49.230;9.220;2023-02-04T04:24:29;101430.75;;;5.56;96.38
17260;BME280;8746;49.230;9.220;2023-02-04T04:26:54;101429.00;;;5.58;96.11
17260;BME280;8746;49.230;9.220;2023-02-04T04:29:19;101442.16;;;5.68;97.11
17260;BME280;8746;49.230;9.220;2023-02-04T04:31:45;101437.75;;;5.62;94.70
17260;BME280;8746;49.230;9.220;2023-02-04T04:34:13;101440.38;;;5.62;94.15
17260;BME280;8746;49.230;9.220;2023-02-04T04:36:39;101453.47;;;5.64;94.76
17260;BME280;8746;49.230;9.220;2023-02-04T04:39:04;101456.97;;;5.69;92.17
17260;BME280;8746;49.230;9.220;2023-02-04T04:41:29;101456.13;;;5.74;92.33
17260;BME280;8746;49.230;9.220;2023-02-04T04:43:55;101463.97;;;5.67;93.69
17260;BME280;8746;49.230;9.220;2023-02-04T04:46:20;101467.44;;;5.66;94.06
17260;BME280;8746;49.230;9.220;2023-02-04T04:48:45;101466.56;;;5.65;94.60
17260;BME280;8746;49.230;9.220;2023-02-04T04:51:11;101467.41;;;5.58;95.64
17260;BME280;8746;49.230;9.220;2023-02-04T04:53:36;101467.38;;;5.53;94.27
17260;BME280;8746;49.230;9.220;2023-02-04T04:56:02;101465.63;;;5.52;92.71
17260;BME280;8746;49.230;9.220;2023-02-04T04:58:27;101465.63;;;5.55;94.26
17260;BME280;8746;49.230;9.220;2023-02-04T05:00:52;101470.03;;;5.59;95.00
17260;BME280;8746;49.230;9.220;2023-02-04T05:03:18;101466.50;;;5.51;94.21
17260;BME280;8746;49.230;9.220;2023-02-04T05:05:43;101470.00;;;5.55;93.21
17260;BME280;8746;49.230;9.220;2023-02-04T05:08:09;101474.38;;;5.57;90.74
17260;BME280;8746;49.230;9.220;2023-02-04T05:10:41;101482.22;;;5.56;92.43
17260;BME280;8746;49.230;9.220;2023-02-04T05:13:06;101481.31;;;5.49;91.54
17260;BME280;8746;49.230;9.220;2023-02-04T05:15:31;101490.09;;;5.54;92.61
17260;BME280;8746;49.230;9.220;2023-02-04T05:17:57;101493.53;;;5.52;91.28
17260;BME280;8746;49.230;9.220;2023-02-04T05:20:23;101487.38;;;5.37;94.06
17260;BME280;8746;49.230;9.220;2023-02-04T05:22:49;101483.03;;;5.42;92.34
17260;BME280;8746;49.230;9.220;2023-02-04T05:25:15;101489.13;;;5.40;91.95
17260;BME280;8746;49.230;9.220;2023-02-04T05:27:41;101487.34;;;5.33;91.91
17260;BME280;8746;49.230;9.220;2023-02-04T05:30:09;101489.00;;;5.21;93.59
17260;BME280;8746;49.230;9.220;2023-02-04T05:32:35;101482.03;;;5.22;93.82
17260;BME280;8746;49.230;9.220;2023-02-04T05:35:01;101469.81;;;5.18;95.78
17260;BME280;8746;49.230;9.220;2023-02-04T05:37:26;101476.75;;;5.16;97.35
17260;BME280;8746;49.230;9.220;2023-02-04T05:39:51;101481.91;;;5.05;100.00
17260;BME280;8746;49.230;9.220;2023-02-04T05:42:17;101491.47;;;5.00;100.00
17260;BME280;8746;49.230;9.220;2023-02-04T05:44:42;101488.81;;;4.96;99.32
17260;BME280;8746;49.230;9.220;2023-02-04T05:47:07;101488.91;;;5.07;96.54
17260;BME280;8746;49.230;9.220;2023-02-04T05:49:33;101501.19;;;5.22;94.35
17260;BME280;8746;49.230;9.220;2023-02-04T05:51:58;101505.44;;;5.05;95.87
17260;BME280;8746;49.230;9.220;2023-02-04T05:54:24;101513.25;;;4.95;96.93
17260;BME280;8746;49.230;9.220;2023-02-04T05:56:50;101514.88;;;4.86;98.62
17260;BME280;8746;49.230;9.220;2023-02-04T05:59:16;101524.41;;;4.79;98.18
17260;BME280;8746;49.230;9.220;2023-02-04T06:01:41;101515.50;;;4.58;99.60
17260;BME280;8746;49.230;9.220;2023-02-04T06:04:07;101530.28;;;4.53;100.00
17260;BME280;8746;49.230;9.220;2023-02-04T06:06:32;101531.91;;;4.42;100.00
17260;BME280;8746;49.230;9.220;2023-02-04T06:08:57;101522.25;;;4.38;100.00
17260;BME280;8746;49.230;9.220;2023-02-04T06:11:23;101528.19;;;4.21;100.00
17260;BME280;8746;49.230;9.220;2023-02-04T06:13:48;101537.66;;;4.13;100.00
17260;BME280;8746;49.230;9.220;2023-02-04T06:16:14;101534.13;;;4.08;100.00
17260;BME280;8746;49.230;9.220;2023-02-04T06:18:39;101533.31;;;4.13;100.00
17260;BME280;8746;49.230;9.220;2023-02-04T06:21:04;101542.88;;;4.11;100.00
17260;BME280;8746;49.230;9.220;2023-02-04T06:23:30;101543.66;;;4.06;100.00
17260;BME280;8746;49.230;9.220;2023-02-04T06:25:58;101538.59;;;4.18;100.00
17260;BME280;8746;49.230;9.220;2023-02-04T06:28:24;101539.34;;;4.06;100.00
17260;BME280;8746;49.230;9.220;2023-02-04T06:30:49;101555.03;;;4.11;100.00
17260;BME280;8746;49.230;9.220;2023-02-04T06:33:15;101553.41;;;4.19;100.00
17260;BME280;8746;49.230;9.220;2023-02-04T06:35:40;101552.50;;;4.15;100.00
17260;BME280;8746;49.230;9.220;2023-02-04T06:38:06;101542.03;;;4.12;100.00
17260;BME280;8746;49.230;9.220;2023-02-04T06:40:31;101549.03;;;4.16;100.00
17260;BME280;8746;49.230;9.220;2023-02-04T06:42:56;101538.63;;;4.21;100.00
17260;BME280;8746;49.230;9.220;2023-02-04T06:45:22;101539.50;;;4.23;99.81
17260;BME280;8746;49.230;9.220;2023-02-04T06:47:47;101551.75;;;4.26;99.73
17260;BME280;8746;49.230;9.220;2023-02-04T06:50:13;101551.78;;;4.30;99.96
17260;BME280;8746;49.230;9.220;2023-02-04T06:52:46;101550.97;;;4.35;99.66
17260;BME280;8746;49.230;9.220;2023-02-04T06:55:12;101550.00;;;4.26;99.58
17260;BME280;8746;49.230;9.220;2023-02-04T06:57:38;101560.41;;;4.23;100.00
17260;BME280;8746;49.230;9.220;2023-02-04T07:00:05;101576.69;;;4.02;100.00
17260;BME280;8746;49.230;9.220;2023-02-04T07:02:31;101576.63;;;3.96;100.00
17260;BME280;8746;49.230;9.220;2023-02-04T07:04:56;101590.53;;;3.93;100.00
17260;BME280;8746;49.230;9.220;2023-02-04T07:07:21;101593.91;;;3.86;100.00
17260;BME280;8746;49.230;9.220;2023-02-04T07:09:47;101601.72;;;3.86;100.00
17260;BME280;8746;49.230;9.220;2023-02-04T07:12:12;101595.66;;;3.87;100.00
17260;BME280;8746;49.230;9.220;2023-02-04T07:14:37;101600.91;;;3.90;100.00
17260;BME280;8746;49.230;9.220;2023-02-04T07:17:03;101609.69;;;3.95;100.00
17260;BME280;8746;49.230;9.220;2023-02-04T07:19:28;101612.31;;;3.95;100.00
17260;BME280;8746;49.230;9.220;2023-02-04T07:21:54;101615.66;;;3.87;100.00
17260;BME280;8746;49.230;9.220;2023-02-04T07:24:22;101633.81;;;3.79;100.00
17260;BME280;8746;49.230;9.220;2023-02-04T07:26:48;101629.41;;;3.75;100.00
17260;BME280;8746;49.230;9.220;2023-02-04T07:29:13;101629.44;;;3.78;100.00
17260;BME280;8746;49.230;9.220;2023-02-04T07:31:38;101627.69;;;3.77;100.00
17260;BME280;8746;49.230;9.220;2023-02-04T07:34:04;101620.75;;;3.77;100.00
17260;BME280;8746;49.230;9.220;2023-02-04T07:36:29;101619.00;;;3.78;100.00
17260;BME280;8746;49.230;9.220;2023-02-04T07:38:55;101629.50;;;3.81;100.00
17260;BME280;8746;49.230;9.220;2023-02-04T07:41:20;101626.06;;;3.83;100.00
17260;BME280;8746;49.230;9.220;2023-02-04T07:43:45;101640.97;;;3.91;100.00
17260;BME280;8746;49.230;9.220;2023-02-04T07:46:14;101640.03;;;3.87;100.00
17260;BME280;8746;49.230;9.220;2023-02-04T07:48:40;101650.56;;;3.93;100.00
17260;BME280;8746;49.230;9.220;2023-02-04T07:51:05;101656.72;;;3.95;100.00
17260;BME280;8746;49.230;9.220;2023-02-04T07:53:30;101657.72;;;4.07;100.00
17260;BME280;8746;49.230;9.220;2023-02-04T07:55:56;101665.91;;;4.33;100.00
17260;BME280;8746;49.230;9.220;2023-02-04T07:58:21;101670.28;;;4.34;100.00
17260;BME280;8746;49.230;9.220;2023-02-04T08:00:47;101671.19;;;4.38;100.00
17260;BME280;8746;49.230;9.220;2023-02-04T08:03:12;101668.72;;;4.45;100.00
17260;BME280;8746;49.230;9.220;2023-02-04T08:05:38;101670.47;;;4.48;100.00
17260;BME280;8746;49.230;9.220;2023-02-04T08:08:03;101674.03;;;4.56;99.72
17260;BME280;8746;49.230;9.220;2023-02-04T08:10:29;101671.53;;;4.64;99.04
17260;BME280;8746;49.230;9.220;2023-02-04T08:12:54;101686.34;;;4.63;97.42
17260;BME280;8746;49.230;9.220;2023-02-04T08:15:20;101690.78;;;4.69;95.61
17260;BME280;8746;49.230;9.220;2023-02-04T08:17:46;101695.16;;;4.72;96.53
17260;BME280;8746;49.230;9.220;2023-02-04T08:20:12;101698.84;;;4.89;95.20
17260;BME280;8746;49.230;9.220;2023-02-04T08:22:37;101697.84;;;4.79;95.90
17260;BME280;8746;49.230;9.220;2023-02-04T08:25:03;101705.69;;;4.78;96.37
17260;BME280;8746;49.230;9.220;2023-02-04T08:27:29;101701.38;;;4.80;98.31
17260;BME280;8746;49.230;9.220;2023-02-04T08:29:55;101703.00;;;4.72;100.00
17260;BME280;8746;49.230;9.220;2023-02-04T08:32:20;101713.31;;;4.61;100.00
17260;BME280;8746;49.230;9.220;2023-02-04T08:34:46;101715.09;;;4.63;100.00
17260;BME280;8746;49.230;9.220;2023-02-04T08:37:13;101715.16;;;4.67;100.00
17260;BME280;8746;49.230;9.220;2023-02-04T08:39:38;101705.63;;;4.72;100.00
17260;BME280;8746;49.230;9.220;2023-02-04T08:42:04;101712.69;;;4.79;100.00
17260;BME280;8746;49.230;9.220;2023-02-04T08:44:30;101714.44;;;4.80;100.00
17260;BME280;8746;49.230;9.220;2023-02-04T08:46:55;101716.22;;;4.86;98.03
17260;BME280;8746;49.230;9.220;2023-02-04T08:49:20;101719.88;;;4.95;95.69
17260;BME280;8746;49.230;9.220;2023-02-04T08:51:46;101723.47;;;5.10;95.89
17260;BME280;8746;49.230;9.220;2023-02-04T08:54:11;101721.00;;;5.22;94.89
17260;BME280;8746;49.230;9.220;2023-02-04T08:56:37;101729.88;;;5.35;93.44
17260;BME280;8746;49.230;9.220;2023-02-04T08:59:02;101727.38;;;5.49;95.16
17260;BME280;8746;49.230;9.220;2023-02-04T09:01:27;101731.75;;;5.47;92.91
17260;BME280;8746;49.230;9.220;2023-02-04T09:03:53;101736.16;;;5.54;91.53
17260;BME280;8746;49.230;9.220;2023-02-04T09:06:18;101738.00;;;5.66;91.90
17260;BME280;8746;49.230;9.220;2023-02-04T09:08:43;101741.41;;;5.54;90.82
17260;BME280;8746;49.230;9.220;2023-02-04T09:11:09;101746.72;;;5.64;90.63
17260;BME280;8746;49.230;9.220;2023-02-04T09:13:36;101748.56;;;5.74;89.99
17260;BME280;8746;49.230;9.220;2023-02-04T09:16:02;101746.84;;;5.79;88.18
17260;BME280;8746;49.230;9.220;2023-02-04T09:18:27;101754.88;;;5.98;89.38
17260;BME280;8746;49.230;9.220;2023-02-04T09:20:54;101752.19;;;5.91;89.15
17260;BME280;8746;49.230;9.220;2023-02-04T09:23:20;101758.47;;;6.04;87.51
17260;BME280;8746;49.230;9.220;2023-02-04T09:25:47;101760.19;;;6.05;86.40
17260;BME280;8746;49.230;9.220;2023-02-04T09:28:12;101762.94;;;6.19;87.39
17260;BME280;8746;49.230;9.220;2023-02-04T09:30:39;101765.47;;;6.12;87.81
17260;BME280;8746;49.230;9.220;2023-02-04T09:33:05;101774.19;;;6.09;84.82
17260;BME280;8746;49.230;9.220;2023-02-04T09:35:30;101780.28;;;6.08;84.93
17260;BME280;8746;49.230;9.220;2023-02-04T09:37:55;101778.66;;;6.19;86.54
17260;BME280;8746;49.230;9.220;2023-02-04T09:40:21;101775.16;;;6.20;83.80
17260;BME280;8746;49.230;9.220;2023-02-04T09:42:49;101768.28;;;6.38;84.40
17260;BME280;8746;49.230;9.220;2023-02-04T09:45:21;101770.94;;;6.44;85.22
17260;BME280;8746;49.230;9.220;2023-02-04T09:47:49;101780.53;;;6.39;82.99
17260;BME280;8746;49.230;9.220;2023-02-04T09:50:17;101770.97;;;6.47;83.25
17260;BME280;8746;49.230;9.220;2023-02-04T09:52:46;101779.69;;;6.41;83.44
17260;BME280;8746;49.230;9.220;2023-02-04T09:55:15;101772.72;;;6.45;84.14
17260;BME280;8746;49.230;9.220;2023-02-04T09:57:41;101786.75;;;6.58;84.15
17260;BME280;8746;49.230;9.220;2023-02-04T10:00:22;101782.47;;;6.69;83.91
17260;BME280;8746;49.230;9.220;2023-02-04T10:02:48;101791.25;;;6.84;83.04
17260;BME280;8746;49.230;9.220;2023-02-04T10:05:16;101790.50;;;7.05;81.17
17260;BME280;8746;49.230;9.220;2023-02-04T10:07:42;101788.78;;;7.09;80.77
17260;BME280;8746;49.230;9.220;2023-02-04T10:10:18;101792.25;;;7.11;81.63
17260;BME280;8746;49.230;9.220;2023-02-04T10:12:45;101799.22;;;6.99;79.76
17260;BME280;8746;49.230;9.220;2023-02-04T10:15:16;101802.72;;;7.00;80.88
17260;BME280;8746;49.230;9.220;2023-02-04T10:17:44;101798.25;;;6.83;78.95
17260;BME280;8746;49.230;9.220;2023-02-04T10:20:22;101800.78;;;6.66;82.35
17260;BME280;8746;49.230;9.220;2023-02-04T10:22:49;101798.00;;;6.37;82.32
17260;BME280;8746;49.230;9.220;2023-02-04T10:25:18;101808.44;;;6.31;83.32
17260;BME280;8746;49.230;9.220;2023-02-04T10:27:48;101804.78;;;6.10;82.46
17260;BME280;8746;49.230;9.220;2023-02-04T10:30:28;101806.59;;;6.17;83.87
17260;BME280;8746;49.230;9.220;2023-02-04T10:32:58;101800.44;;;6.12;83.62
17260;BME280;8746;49.230;9.220;2023-02-04T10:35:24;101809.25;;;6.22;84.20
17260;BME280;8746;49.230;9.220;2023-02-04T10:38:03;101810.06;;;6.16;82.25
17260;BME280;8746;49.230;9.220;2023-02-04T10:40:34;101803.19;;;6.31;81.89
17260;BME280;8746;49.230;9.220;2023-02-04T10:46:02;101810.22;;;6.39;81.78
17260;BME280;8746;49.230;9.220;2023-02-04T10:48:28;101819.91;;;6.44;82.28
17260;BME280;8746;49.230;9.220;2023-02-04T10:50:56;101833.00;;;6.45;83.52
17260;BME280;8746;49.230;9.220;2023-02-04T10:53:23;101822.53;;;6.48;83.16
17260;BME280;8746;49.230;9.220;2023-02-04T10:56:16;101821.91;;;6.91;82.07
17260;BME280;8746;49.230;9.220;2023-02-04T10:58:41;101822.03;;;7.16;78.14
17260;BME280;8746;49.230;9.220;2023-02-04T11:01:12;101822.81;;;7.01;79.65
17260;BME280;8746;49.230;9.220;2023-02-04T11:03:39;101825.22;;;6.59;82.08
17260;BME280;8746;49.230;9.220;2023-02-04T11:06:13;101824.16;;;6.31;85.00
17260;BME280;8746;49.230;9.220;2023-02-04T11:08:41;101819.78;;;6.28;86.96
17260;BME280;8746;49.230;9.220;2023-02-04T11:11:13;101818.78;;;6.12;87.43
17260;BME280;8746;49.230;9.220;2023-02-04T11:18:48;101818.53;;;5.90;86.41
17260;BME280;8746;49.230;9.220;2023-02-04T11:34:07;101808.66;;;6.65;79.14
17260;BME280;8746;49.230;9.220;2023-02-04T11:36:34;101813.94;;;6.71;78.35
17260;BME280;8746;49.230;9.220;2023-02-04T11:39:07;101812.34;;;7.05;77.74
17260;BME280;8746;49.230;9.220;2023-02-04T11:41:38;101814.97;;;6.99;77.53
17260;BME280;8746;49.230;9.220;2023-02-04T11:44:03;101811.50;;;7.03;77.65
17260;BME280;8746;49.230;9.220;2023-02-04T11:46:29;101815.94;;;7.18;77.33
17260;BME280;8746;49.230;9.220;2023-02-04T11:48:55;101814.13;;;7.08;76.57
17260;BME280;8746;49.230;9.220;2023-02-04T11:51:41;101814.97;;;6.98;77.58
17260;BME280;8746;49.230;9.220;2023-02-04T11:54:10;101812.28;;;6.88;76.90
17260;BME280;8746;49.230;9.220;2023-02-04T11:56:35;101827.25;;;7.06;77.70
17260;BME280;8746;49.230;9.220;2023-02-04T11:59:01;101822.88;;;7.10;76.95
17260;BME280;8746;49.230;9.220;2023-02-04T12:01:31;101828.09;;;6.99;76.21
17260;BME280;8746;49.230;9.220;2023-02-04T12:03:59;101830.78;;;7.16;75.69
17260;BME280;8746;49.230;9.220;2023-02-04T12:06:32;101829.88;;;7.08;76.05
17260;BME280;8746;49.230;9.220;2023-02-04T12:11:53;101828.16;;;7.16;79.34
17260;BME280;8746;49.230;9.220;2023-02-04T12:14:19;101828.19;;;7.19;79.02
17260;BME280;8746;49.230;9.220;2023-02-04T12:16:46;101831.69;;;7.21;76.46
17260;BME280;8746;49.230;9.220;2023-02-04T12:19:12;101826.47;;;7.31;77.03
17260;BME280;8746;49.230;9.220;2023-02-04T12:21:38;101830.81;;;7.24;77.83
17260;BME280;8746;49.230;9.220;2023-02-04T12:24:04;101830.84;;;7.32;78.02
17260;BME280;8746;49.230;9.220;2023-02-04T12:26:29;101829.13;;;7.35;76.48
17260;BME280;8746;49.230;9.220;2023-02-04T12:28:55;101816.84;;;7.37;75.04
17260;BME280;8746;49.230;9.220;2023-02-04T12:31:20;101830.00;;;7.42;76.46
17260;BME280;8746;49.230;9.220;2023-02-04T12:33:46;101823.91;;;7.51;73.83
17260;BME280;8746;49.230;9.220;2023-02-04T12:36:12;101820.41;;;7.58;73.16
17260;BME280;8746;49.230;9.220;2023-02-04T12:38:37;101816.09;;;7.83;72.72
17260;BME280;8746;49.230;9.220;2023-02-04T12:41:02;101818.72;;;7.90;72.53
17260;BME280;8746;49.230;9.220;2023-02-04T12:43:28;101817.84;;;7.97;74.01
17260;BME280;8746;49.230;9.220;2023-02-04T12:45:53;101814.34;;;7.82;72.07
17260;BME280;8746;49.230;9.220;2023-02-04T12:48:19;101819.56;;;7.72;72.91
17260;BME280;8746;49.230;9.220;2023-02-04T12:50:44;101817.84;;;7.72;72.35
17260;BME280;8746;49.230;9.220;2023-02-04T12:53:09;101817.81;;;7.63;71.79
17260;BME280;8746;49.230;9.220;2023-02-04T12:55:35;101826.59;;;7.71;72.95
17260;BME280;8746;49.230;9.220;2023-02-04T12:58:01;101824.81;;;7.64;72.28
17260;BME280;8746;49.230;9.220;2023-02-04T13:00:26;101823.09;;;7.72;75.15
17260;BME280;8746;49.230;9.220;2023-02-04T13:02:52;101817.81;;;7.60;72.53
17260;BME280;8746;49.230;9.220;2023-02-04T13:05:23;101822.16;;;7.59;74.72
17260;BME280;8746;49.230;9.220;2023-02-04T13:07:49;101819.53;;;7.61;73.51
17260;BME280;8746;49.230;9.220;2023-02-04T13:10:14;101830.00;;;7.33;74.01
17260;BME280;8746;49.230;9.220;2023-02-04T13:12:40;101826.44;;;7.26;73.61
17260;BME280;8746;49.230;9.220;2023-02-04T13:15:06;101831.75;;;7.43;75.31
17260;BME280;8746;49.230;9.220;2023-02-04T13:17:31;101831.81;;;7.52;76.15
17260;BME280;8746;49.230;9.220;2023-02-04T13:19:57;101828.28;;;7.53;77.60
17260;BME280;8746;49.230;9.220;2023-02-04T13:22:24;101833.50;;;7.36;78.40
17260;BME280;8746;49.230;9.220;2023-02-04T13:24:50;101828.09;;;7.04;79.08